createdAt,value
2022-10-05T00:01:54.340Z,18.10
2022-10-05T00:04:25.124Z,17.85
2022-10-05T00:07:07.636Z,17.45
2022-10-05T00:09:35.334Z,19.23
2022-10-05T00:12:14.472Z,17.55
2022-10-05T00:14:42.487Z,17.33
2022-10-05T00:17:18.853Z,18.17
2022-10-05T00:19:51.907Z,18.55
2022-10-05T00:22:21.142Z,18.23
2022-10-05T00:24:49.867Z,16.55
2022-10-05T00:27:21.578Z,17.67
2022-10-05T00:29:50.234Z,17.90
2022-10-05T00:32:18.296Z,16.08
2022-10-05T00:34:46.482Z,16.35
2022-10-05T00:37:15.050Z,15.48
2022-10-05T00:39:43.026Z,16.27
2022-10-05T00:42:29.524Z,16.45
2022-10-05T00:44:59.881Z,15.43
2022-10-05T00:47:30.611Z,15.88
2022-10-05T00:49:58.220Z,15.77
2022-10-05T00:52:41.113Z,14.82
2022-10-05T00:55:13.295Z,13.45
2022-10-05T00:57:41.811Z,13.85
2022-10-05T01:00:12.424Z,14.40
2022-10-05T01:02:49.076Z,14.27
2022-10-05T01:05:19.676Z,12.32
2022-10-05T01:08:07.696Z,12.32
2022-10-05T01:10:39.225Z,13.05
2022-10-05T01:13:11.819Z,10.95
2022-10-05T01:15:39.518Z,11.30
2022-10-05T01:18:13.329Z,11.48
2022-10-05T01:20:52.155Z,10.25
2022-10-05T01:23:38.737Z,10.13
2022-10-05T01:26:15.226Z,10.35
2022-10-05T01:28:48.854Z,10.18
2022-10-05T01:31:16.566Z,10.20
2022-10-05T01:33:44.226Z,10.20
2022-10-05T01:36:13.154Z,10.07
2022-10-05T01:38:55.419Z,10.43
2022-10-05T01:41:29.271Z,9.82
2022-10-05T01:44:01.097Z,9.70
2022-10-05T01:46:39.114Z,10.50
2022-10-05T01:49:12.718Z,10.65
2022-10-05T01:51:43.527Z,9.50
2022-10-05T01:54:22.572Z,10.52
2022-10-05T01:57:13.478Z,9.38
2022-10-05T01:59:41.141Z,9.48
2022-10-05T02:02:14.957Z,9.60
2022-10-05T02:05:02.877Z,10.60
2022-10-05T02:07:35.158Z,11.63
2022-10-05T02:12:32.208Z,10.70
2022-10-05T02:15:03.635Z,10.15
2022-10-05T02:17:41.001Z,10.20
2022-10-05T02:20:11.970Z,10.13
2022-10-05T02:22:48.306Z,9.50
2022-10-05T02:25:21.976Z,11.07
2022-10-05T02:27:49.995Z,10.93
2022-10-05T02:30:19.091Z,10.07
2022-10-05T02:32:56.054Z,9.95
2022-10-05T02:35:24.126Z,10.07
2022-10-05T02:37:57.847Z,10.57
2022-10-05T02:40:33.847Z,9.98
2022-10-05T02:43:07.783Z,10.63
2022-10-05T02:45:41.814Z,10.25
2022-10-05T02:48:15.902Z,10.25
2022-10-05T02:51:02.361Z,10.38
2022-10-05T02:53:38.977Z,9.18
2022-10-05T02:56:11.365Z,8.93
2022-10-05T02:58:46.663Z,9.15
2022-10-05T03:01:17.498Z,7.88
2022-10-05T03:03:52.001Z,8.68
2022-10-05T03:06:32.417Z,8.88
2022-10-05T03:09:04.808Z,9.75
2022-10-05T03:11:52.070Z,9.13
2022-10-05T03:14:22.621Z,9.10
2022-10-05T03:17:09.261Z,8.50
2022-10-05T03:19:46.353Z,9.77
2022-10-05T03:22:23.717Z,9.60
2022-10-05T03:24:51.432Z,10.45
2022-10-05T03:27:25.322Z,9.15
2022-10-05T03:29:53.354Z,9.00
2022-10-05T03:32:27.191Z,9.55
2022-10-05T03:34:55.874Z,9.57
2022-10-05T03:37:28.124Z,10.40
2022-10-05T03:40:01.835Z,9.48
2022-10-05T03:42:38.930Z,10.20
2022-10-05T03:45:25.210Z,9.88
2022-10-05T03:48:01.178Z,10.18
2022-10-05T03:50:40.715Z,10.38
2022-10-05T03:53:12.058Z,10.88
2022-10-05T03:55:43.065Z,10.57
2022-10-05T03:58:20.559Z,11.25
2022-10-05T04:00:52.506Z,10.55
2022-10-05T04:03:23.416Z,10.20
2022-10-05T04:05:54.568Z,10.13
2022-10-05T04:08:45.404Z,9.63
2022-10-05T04:11:18.274Z,10.38
2022-10-05T04:14:06.343Z,11.05
2022-10-05T04:16:48.469Z,9.98
2022-10-05T04:19:37.919Z,10.65
2022-10-05T04:22:32.182Z,10.73
2022-10-05T04:25:16.274Z,11.60
2022-10-05T04:27:46.641Z,9.98
2022-10-05T04:30:16.355Z,10.48
2022-10-05T04:32:45.342Z,12.27
2022-10-05T04:35:35.848Z,10.35
2022-10-05T04:38:03.880Z,10.60
2022-10-05T04:40:34.698Z,10.88
2022-10-05T04:43:02.478Z,11.93
2022-10-05T04:45:49.541Z,11.07
2022-10-05T04:48:17.586Z,10.77
2022-10-05T04:50:50.259Z,10.70
2022-10-05T04:53:26.028Z,10.90
2022-10-05T04:56:00.880Z,10.85
2022-10-05T04:58:28.490Z,10.70
2022-10-05T05:00:56.244Z,11.70
2022-10-05T05:03:42.747Z,10.98
2022-10-05T05:06:17.808Z,11.35
2022-10-05T05:08:52.310Z,10.63
2022-10-05T05:11:29.832Z,11.00
2022-10-05T05:14:12.606Z,11.10
2022-10-05T05:16:44.863Z,10.13
2022-10-05T05:19:34.791Z,11.30
2022-10-05T05:22:15.903Z,10.95
2022-10-05T05:24:55.572Z,11.13
2022-10-05T05:27:43.821Z,11.35
2022-10-05T05:30:16.879Z,11.55
2022-10-05T05:32:47.688Z,12.07
2022-10-05T05:35:15.398Z,12.30
2022-10-05T05:38:03.351Z,12.35
2022-10-05T05:40:40.545Z,12.30
2022-10-05T05:43:17.495Z,12.57
2022-10-05T05:45:52.032Z,12.40
2022-10-05T05:48:24.553Z,12.15
2022-10-05T05:50:58.502Z,13.18
2022-10-05T05:53:27.417Z,11.57
2022-10-05T05:56:00.670Z,12.43
2022-10-05T05:58:33.734Z,13.75
2022-10-05T06:01:33.322Z,12.63
2022-10-05T06:04:04.833Z,12.77
2022-10-05T06:06:33.457Z,11.93
2022-10-05T06:09:03.258Z,12.70
2022-10-05T06:11:41.060Z,12.57
2022-10-05T06:14:15.594Z,13.68
2022-10-05T06:16:51.644Z,12.23
2022-10-05T06:19:22.065Z,12.68
2022-10-05T06:22:15.565Z,12.32
2022-10-05T06:24:43.465Z,13.73
2022-10-05T06:27:17.497Z,12.88
2022-10-05T06:29:57.178Z,13.20
2022-10-05T06:32:33.435Z,12.10
2022-10-05T06:35:08.100Z,15.07
2022-10-05T06:37:53.573Z,14.88
2022-10-05T06:40:24.106Z,17.17
2022-10-05T06:43:11.053Z,17.60
2022-10-05T06:49:10.652Z,16.38
2022-10-05T06:52:04.550Z,17.05
2022-10-05T06:54:43.388Z,17.85
2022-10-05T06:57:36.629Z,15.98
2022-10-05T07:00:25.312Z,15.70
2022-10-05T07:02:58.671Z,15.27
2022-10-05T07:05:32.683Z,15.80
2022-10-05T07:08:20.969Z,14.68
2022-10-05T07:11:02.401Z,13.85
2022-10-05T07:13:31.031Z,13.48
2022-10-05T07:16:08.012Z,13.23
2022-10-05T07:18:36.014Z,14.38
2022-10-05T07:21:06.713Z,13.32
2022-10-05T07:23:57.692Z,14.35
2022-10-05T07:26:32.801Z,14.48
2022-10-05T07:29:19.557Z,15.20
2022-10-05T07:31:51.790Z,15.07
2022-10-05T07:34:45.963Z,15.68
2022-10-05T07:37:36.777Z,16.05
2022-10-05T07:40:05.352Z,16.42
2022-10-05T07:42:54.769Z,16.85
2022-10-05T07:45:28.065Z,17.20
2022-10-05T07:47:57.890Z,17.27
2022-10-05T07:50:39.349Z,16.65
2022-10-05T07:53:21.141Z,17.75
2022-10-05T07:55:52.706Z,18.08
2022-10-05T07:58:32.822Z,17.35
2022-10-05T08:01:19.198Z,16.23
2022-10-05T08:03:56.584Z,15.85
2022-10-05T08:06:27.175Z,14.73
2022-10-05T08:09:02.934Z,14.55
2022-10-05T08:11:33.314Z,16.00
2022-10-05T08:14:16.679Z,14.13
2022-10-05T08:16:46.710Z,14.43
2022-10-05T08:19:32.882Z,15.32
2022-10-05T08:22:02.493Z,15.18
2022-10-05T08:24:36.054Z,14.07
2022-10-05T08:27:08.161Z,15.35
2022-10-05T08:29:40.025Z,13.45
2022-10-05T08:32:16.921Z,13.40
2022-10-05T08:34:45.785Z,12.32
2022-10-05T08:37:25.425Z,13.13
2022-10-05T08:39:56.213Z,11.23
2022-10-05T08:43:02.464Z,13.13
2022-10-05T08:45:32.725Z,12.55
2022-10-05T08:48:03.127Z,12.25
2022-10-05T08:50:45.770Z,11.63
2022-10-05T08:53:19.791Z,11.52
2022-10-05T08:55:47.405Z,13.38
2022-10-05T08:58:40.065Z,11.57
2022-10-05T09:01:11.131Z,10.60
2022-10-05T09:03:41.565Z,12.75
2022-10-05T09:06:23.198Z,11.70
2022-10-05T09:09:10.556Z,11.25
2022-10-05T09:11:53.358Z,11.18
2022-10-05T09:14:20.934Z,11.18
2022-10-05T09:16:48.557Z,11.30
2022-10-05T09:19:19.253Z,11.02
2022-10-05T09:21:56.936Z,9.85
2022-10-05T09:24:28.186Z,10.32
2022-10-05T09:27:05.082Z,12.50
2022-10-05T09:29:35.525Z,11.82
2022-10-05T09:32:16.319Z,10.73
2022-10-05T09:34:44.695Z,10.13
2022-10-05T09:37:12.323Z,9.35
2022-10-05T09:39:39.912Z,9.77
2022-10-05T09:42:22.850Z,8.90
2022-10-05T09:44:59.595Z,9.25
2022-10-05T09:47:30.165Z,8.23
2022-10-05T09:50:00.755Z,8.35
2022-10-05T09:52:31.527Z,8.60
2022-10-05T09:55:01.435Z,9.25
2022-10-05T09:57:39.274Z,7.72
2022-10-05T10:00:08.641Z,9.60
2022-10-05T10:03:05.370Z,7.93
2022-10-05T10:05:48.305Z,8.88
2022-10-05T10:08:34.191Z,8.07
2022-10-05T10:11:21.902Z,7.55
2022-10-05T10:14:04.838Z,6.30
2022-10-05T10:16:32.453Z,6.43
2022-10-05T10:19:12.803Z,6.90
2022-10-05T10:21:55.419Z,6.15
2022-10-05T10:24:41.828Z,6.75
2022-10-05T10:27:12.303Z,6.07
2022-10-05T10:30:00.417Z,8.48
2022-10-05T10:32:48.325Z,8.43
2022-10-05T10:35:19.360Z,8.05
2022-10-05T10:37:47.061Z,8.00
2022-10-05T10:40:23.556Z,7.82
2022-10-05T10:43:05.613Z,7.30
2022-10-05T10:45:42.391Z,8.98
2022-10-05T10:48:12.114Z,10.88
2022-10-05T10:50:39.721Z,11.07
2022-10-05T10:53:16.373Z,10.88
2022-10-05T10:56:02.813Z,8.98
2022-10-05T11:01:21.602Z,9.57
2022-10-05T11:03:52.126Z,9.73
2022-10-05T11:06:28.930Z,10.07
2022-10-05T11:08:59.580Z,9.80
2022-10-05T11:11:45.553Z,9.77
2022-10-05T11:14:35.480Z,8.73
2022-10-05T11:17:21.861Z,7.90
2022-10-05T11:20:05.227Z,8.82
2022-10-05T11:22:51.732Z,8.88
2022-10-05T11:25:28.313Z,8.95
2022-10-05T11:28:05.179Z,9.52
2022-10-05T11:30:51.406Z,8.85
2022-10-05T11:33:19.296Z,8.68
2022-10-05T11:36:05.697Z,9.30
2022-10-05T11:38:52.014Z,8.57
2022-10-05T11:41:38.028Z,7.75
2022-10-05T11:44:18.324Z,7.70
2022-10-05T11:47:04.039Z,9.00
2022-10-05T11:49:39.576Z,8.80
2022-10-05T11:52:19.367Z,8.65
2022-10-05T11:55:09.860Z,8.43
2022-10-05T11:57:59.246Z,8.55
2022-10-05T12:00:37.234Z,8.95
2022-10-05T12:03:23.462Z,8.25
2022-10-05T12:05:55.257Z,7.25
2022-10-05T12:08:25.752Z,9.77
2022-10-05T12:11:08.802Z,8.98
2022-10-05T12:13:43.268Z,10.18
2022-10-05T12:16:14.275Z,8.75
2022-10-05T12:19:02.205Z,9.20
2022-10-05T12:21:33.209Z,9.20
2022-10-05T12:24:04.337Z,9.57
2022-10-05T12:26:35.229Z,8.75
2022-10-05T12:29:08.741Z,9.30
2022-10-05T12:31:41.194Z,9.65
2022-10-05T12:34:15.104Z,9.18
2022-10-05T12:37:04.765Z,9.93
2022-10-05T12:39:41.800Z,9.20
2022-10-05T12:42:09.447Z,10.35
2022-10-05T12:44:42.112Z,9.52
2022-10-05T12:47:15.891Z,9.85
2022-10-05T12:49:52.639Z,9.57
2022-10-05T12:52:35.426Z,9.27
2022-10-05T12:55:21.892Z,9.45
2022-10-05T12:58:06.043Z,8.55
2022-10-05T13:00:40.048Z,9.38
2022-10-05T13:03:18.715Z,10.35
2022-10-05T13:06:04.167Z,10.90
2022-10-05T13:08:40.595Z,9.70
2022-10-05T13:11:15.029Z,10.05
2022-10-05T13:13:53.087Z,9.93
2022-10-05T13:16:43.243Z,10.95
2022-10-05T13:19:19.511Z,9.68
2022-10-05T13:21:55.605Z,8.98
2022-10-05T13:24:26.637Z,9.50
2022-10-05T13:26:55.901Z,9.73
2022-10-05T13:29:27.578Z,10.85
2022-10-05T13:31:57.558Z,11.00
2022-10-05T13:34:30.950Z,11.30
2022-10-05T13:37:13.629Z,13.65
2022-10-05T13:40:01.719Z,11.13
2022-10-05T13:42:37.730Z,12.35
2022-10-05T13:45:11.246Z,11.38
2022-10-05T13:47:49.717Z,9.70
2022-10-05T13:50:17.359Z,10.90
2022-10-05T13:53:00.194Z,11.60
2022-10-05T13:55:34.195Z,12.63
2022-10-05T13:58:06.024Z,13.80
2022-10-05T14:03:02.034Z,11.43
2022-10-05T14:05:33.042Z,11.82
2022-10-05T14:08:04.127Z,12.98
2022-10-05T14:10:34.758Z,13.40
2022-10-05T14:13:03.320Z,14.07
2022-10-05T14:15:32.589Z,15.07
2022-10-05T14:18:00.220Z,14.38
2022-10-05T14:20:28.193Z,12.50
2022-10-05T14:22:58.301Z,11.60
2022-10-05T14:25:26.382Z,11.82
2022-10-05T14:28:14.320Z,10.38
2022-10-05T14:30:59.033Z,11.50
2022-10-05T14:33:28.466Z,11.02
2022-10-05T14:35:57.827Z,9.60
2022-10-05T14:38:29.916Z,11.02
2022-10-05T14:41:13.034Z,11.75
2022-10-05T14:43:49.525Z,15.55
2022-10-05T14:46:18.829Z,13.20
2022-10-05T14:48:49.414Z,15.25
2022-10-05T14:51:31.810Z,13.45
2022-10-05T14:54:00.971Z,14.27
2022-10-05T14:56:47.333Z,12.75
2022-10-05T14:59:35.483Z,12.75
2022-10-05T15:02:23.234Z,10.98
2022-10-05T15:05:05.300Z,14.50
2022-10-05T15:07:40.514Z,14.45
2022-10-05T15:10:26.977Z,17.42
2022-10-05T15:12:56.385Z,14.63
2022-10-05T15:15:42.855Z,13.75
2022-10-05T15:18:14.952Z,13.93
2022-10-05T15:20:45.332Z,13.60
2022-10-05T15:23:12.904Z,14.02
2022-10-05T15:25:50.137Z,12.40
2022-10-05T15:28:34.628Z,12.13
2022-10-05T15:31:03.835Z,12.57
2022-10-05T15:33:38.106Z,14.70
2022-10-05T15:36:11.704Z,14.98
2022-10-05T15:38:43.163Z,12.38
2022-10-05T15:41:15.476Z,14.35
2022-10-05T15:43:48.103Z,13.05
2022-10-05T15:46:15.824Z,13.77
2022-10-05T15:49:08.290Z,13.02
2022-10-05T15:51:42.398Z,13.32
2022-10-05T15:54:28.525Z,14.98
2022-10-05T15:57:22.523Z,14.77
2022-10-05T15:59:50.207Z,13.13
2022-10-05T16:02:21.608Z,13.35
2022-10-05T16:04:52.370Z,14.23
2022-10-05T16:07:43.757Z,13.68
2022-10-05T16:10:21.439Z,14.35
2022-10-05T16:13:07.544Z,13.13
2022-10-05T16:15:38.879Z,13.45
2022-10-05T16:18:21.908Z,13.25
2022-10-05T16:21:00.108Z,14.10
2022-10-05T16:23:44.101Z,14.80
2022-10-05T16:26:31.657Z,16.70
2022-10-05T16:29:13.036Z,13.60
2022-10-05T16:31:59.423Z,14.73
2022-10-05T16:34:45.659Z,15.70
2022-10-05T16:37:17.151Z,13.73
2022-10-05T16:39:45.072Z,13.93
2022-10-05T16:42:12.683Z,14.75
2022-10-05T16:44:58.961Z,14.60
2022-10-05T16:47:41.171Z,13.55
2022-10-05T16:50:21.051Z,13.60
2022-10-05T16:52:52.704Z,14.05
2022-10-05T16:55:26.221Z,13.57
2022-10-05T16:57:56.876Z,13.70
2022-10-05T17:00:31.534Z,14.48
2022-10-05T17:03:05.345Z,15.07
2022-10-05T17:05:38.642Z,12.93
2022-10-05T17:08:31.696Z,13.57
2022-10-05T17:11:16.678Z,12.63
2022-10-05T17:13:59.901Z,12.00
2022-10-05T17:16:33.435Z,12.93
2022-10-05T17:19:08.586Z,11.65
2022-10-05T17:21:38.990Z,11.73
2022-10-05T17:24:06.602Z,13.38
2022-10-05T17:26:46.573Z,12.98
2022-10-05T17:29:17.291Z,13.18
2022-10-05T17:32:00.265Z,13.35
2022-10-05T17:34:34.361Z,14.43
2022-10-05T17:37:28.363Z,14.82
2022-10-05T17:39:57.130Z,15.50
2022-10-05T17:42:30.395Z,14.73
2022-10-05T17:45:13.070Z,14.38
2022-10-05T17:47:59.332Z,14.00
2022-10-05T17:50:59.689Z,13.50
2022-10-05T17:53:54.832Z,12.50
2022-10-05T17:56:23.163Z,12.50
2022-10-05T17:58:54.491Z,12.65
2022-10-05T18:01:31.438Z,12.25
2022-10-05T18:04:16.174Z,12.00
2022-10-05T18:07:00.151Z,13.30
2022-10-05T18:09:27.959Z,12.05
2022-10-05T18:12:15.574Z,12.25
2022-10-05T18:15:23.194Z,11.35
2022-10-05T18:17:54.875Z,12.05
2022-10-05T18:20:27.850Z,12.55
2022-10-05T18:23:15.433Z,12.25
2022-10-05T18:25:49.746Z,13.75
2022-10-05T18:28:35.830Z,12.85
2022-10-05T18:31:07.301Z,11.80
2022-10-05T18:33:43.868Z,11.55
2022-10-05T18:36:20.698Z,11.95
2022-10-05T18:38:48.417Z,14.00
2022-10-05T18:41:23.230Z,15.00
2022-10-05T18:43:59.578Z,13.73
2022-10-05T18:46:30.044Z,14.68
2022-10-05T18:49:08.412Z,15.27
2022-10-05T18:52:05.106Z,16.70
2022-10-05T18:54:32.737Z,14.57
2022-10-05T18:57:08.152Z,14.48
2022-10-05T18:59:35.737Z,15.95
2022-10-05T19:02:03.528Z,14.90
2022-10-05T19:04:41.418Z,14.13
2022-10-05T19:07:27.534Z,13.55
2022-10-05T19:10:04.294Z,14.20
2022-10-05T19:12:47.365Z,14.52
2022-10-05T19:15:18.062Z,15.63
2022-10-05T19:17:48.761Z,14.85
2022-10-05T19:20:35.528Z,14.75
2022-10-05T19:23:15.373Z,14.95
2022-10-05T19:25:51.918Z,14.60
2022-10-05T19:28:27.583Z,15.82
2022-10-05T19:31:13.764Z,15.45
2022-10-05T19:33:56.889Z,16.27
2022-10-05T19:36:40.199Z,17.05
2022-10-05T19:39:21.248Z,16.60
2022-10-05T19:42:07.646Z,17.02
2022-10-05T19:44:44.466Z,18.20
2022-10-05T19:47:25.219Z,18.10
2022-10-05T19:49:52.902Z,17.80
2022-10-05T19:52:30.820Z,17.98
2022-10-05T19:55:04.713Z,18.63
2022-10-05T19:57:32.810Z,18.63
2022-10-05T20:00:00.582Z,20.60
2022-10-05T20:02:28.748Z,19.48
2022-10-05T20:05:06.087Z,19.95
2022-10-05T20:07:34.882Z,19.30
2022-10-05T20:10:21.837Z,18.45
2022-10-05T20:12:53.795Z,19.85
2022-10-05T20:18:45.570Z,17.85
2022-10-05T20:21:32.224Z,19.63
2022-10-05T20:24:16.741Z,19.40
2022-10-05T20:27:07.135Z,19.00
2022-10-05T20:29:35.556Z,19.00
2022-10-05T20:32:11.090Z,18.90
2022-10-05T20:34:41.411Z,19.80
2022-10-05T20:37:09.889Z,20.40
2022-10-05T20:39:37.935Z,20.58
2022-10-05T20:42:05.789Z,19.85
2022-10-05T20:44:33.683Z,21.30
2022-10-05T20:47:01.504Z,19.80
2022-10-05T20:49:31.092Z,21.80
2022-10-05T20:51:59.278Z,21.50
2022-10-05T20:54:27.720Z,21.52
2022-10-05T20:56:55.884Z,20.60
2022-10-05T20:59:24.270Z,22.38
2022-10-05T21:01:52.288Z,22.83
2022-10-05T21:04:30.133Z,21.00
2022-10-05T21:07:02.496Z,21.08
2022-10-05T21:09:30.627Z,20.73
2022-10-05T21:11:58.747Z,21.17
2022-10-05T21:14:30.529Z,22.17
2022-10-05T21:19:25.681Z,21.52
2022-10-05T21:21:54.261Z,22.50
2022-10-05T21:24:21.883Z,20.45
2022-10-05T21:26:49.660Z,22.80
2022-10-05T21:29:17.392Z,21.27
2022-10-05T21:31:45.099Z,21.63
2022-10-05T21:34:12.709Z,22.75
2022-10-05T21:36:40.406Z,22.15
2022-10-05T21:39:08.035Z,21.63
2022-10-05T21:41:35.752Z,21.50
2022-10-05T21:44:04.130Z,22.95
2022-10-05T21:46:31.817Z,22.00
2022-10-05T21:48:59.610Z,21.48
2022-10-05T21:51:28.012Z,22.48
2022-10-05T21:53:55.593Z,22.65
2022-10-05T21:56:24.277Z,22.40
2022-10-05T21:58:52.593Z,22.52
2022-10-05T22:01:22.911Z,21.40
2022-10-05T22:03:51.010Z,22.25
2022-10-05T22:06:18.655Z,21.45
2022-10-05T22:08:46.283Z,23.80
2022-10-05T22:11:15.776Z,22.73
2022-10-05T22:13:47.618Z,22.98
2022-10-05T22:16:16.170Z,23.48
2022-10-05T22:18:44.010Z,22.92
2022-10-05T22:21:13.360Z,22.80
2022-10-05T22:23:41.729Z,23.23
2022-10-05T22:26:10.923Z,23.33
2022-10-05T22:28:39.833Z,23.60
2022-10-05T22:31:08.531Z,24.02
2022-10-05T22:33:37.192Z,25.13
2022-10-05T22:36:06.246Z,25.25
2022-10-05T22:38:33.837Z,23.58
2022-10-05T22:41:01.481Z,26.17
2022-10-05T22:43:29.155Z,24.10
2022-10-05T22:45:56.902Z,25.35
2022-10-05T22:48:24.702Z,24.00
2022-10-05T22:50:52.532Z,24.08
2022-10-05T22:53:20.212Z,23.92
2022-10-05T22:55:47.870Z,24.42
2022-10-05T22:58:15.517Z,24.90
2022-10-05T23:00:59.074Z,24.20
2022-10-05T23:03:26.883Z,24.48
2022-10-05T23:05:58.550Z,25.67
2022-10-05T23:08:26.800Z,24.77
2022-10-05T23:10:54.764Z,27.50
2022-10-05T23:13:22.529Z,24.70
2022-10-05T23:15:50.167Z,24.60
2022-10-05T23:18:17.814Z,25.00
2022-10-05T23:20:45.488Z,26.50
2022-10-05T23:23:13.125Z,27.75
2022-10-05T23:25:40.761Z,26.33
2022-10-05T23:28:08.389Z,26.95
2022-10-05T23:30:36.124Z,26.27
2022-10-05T23:33:03.926Z,27.02
2022-10-05T23:35:31.571Z,26.45
2022-10-05T23:37:59.945Z,27.38
2022-10-05T23:40:27.719Z,28.75
2022-10-05T23:42:55.792Z,27.33
2022-10-05T23:45:23.429Z,29.10
2022-10-05T23:47:51.083Z,26.65
2022-10-05T23:50:20.591Z,27.52
2022-10-05T23:52:48.401Z,25.95
2022-10-05T23:55:16.138Z,28.35
2022-10-05T23:57:43.717Z,27.83
